sensor_id;sensor_type;location;lat;lon;timestamp;P1;durP1;ratioP1;P2;durP2;ratioP2
920;SDS011;447;51.332;6.778;2022-07-06T00:00:29;2.87;;;1.90;;
920;SDS011;447;51.332;6.778;2022-07-06T00:02:56;4.77;;;2.40;;
920;SDS011;447;51.332;6.778;2022-07-06T00:05:26;5.60;;;3.20;;
920;SDS011;447;51.332;6.778;2022-07-06T00:07:52;7.10;;;3.13;;
920;SDS011;447;51.332;6.778;2022-07-06T00:10:18;8.30;;;3.00;;
920;SDS011;447;51.332;6.778;2022-07-06T00:12:47;4.43;;;2.50;;
920;SDS011;447;51.332;6.778;2022-07-06T00:15:13;6.13;;;2.60;;
920;SDS011;447;51.332;6.778;2022-07-06T00:17:39;5.07;;;2.60;;
920;SDS011;447;51.332;6.778;2022-07-06T00:20:07;4.03;;;2.43;;
920;SDS011;447;51.332;6.778;2022-07-06T00:22:33;4.77;;;2.70;;
920;SDS011;447;51.332;6.778;2022-07-06T00:24:59;5.00;;;2.37;;
920;SDS011;447;51.332;6.778;2022-07-06T00:27:25;3.67;;;2.37;;
920;SDS011;447;51.332;6.778;2022-07-06T00:29:54;4.80;;;2.43;;
920;SDS011;447;51.332;6.778;2022-07-06T00:32:20;2.77;;;2.20;;
920;SDS011;447;51.332;6.778;2022-07-06T00:34:52;4.90;;;2.30;;
920;SDS011;447;51.332;6.778;2022-07-06T00:37:18;5.00;;;2.63;;
920;SDS011;447;51.332;6.778;2022-07-06T00:39:49;5.37;;;2.60;;
920;SDS011;447;51.332;6.778;2022-07-06T00:42:18;5.10;;;2.53;;
920;SDS011;447;51.332;6.778;2022-07-06T00:44:43;4.37;;;2.40;;
920;SDS011;447;51.332;6.778;2022-07-06T00:47:12;4.20;;;1.70;;
920;SDS011;447;51.332;6.778;2022-07-06T00:49:38;5.60;;;2.63;;
920;SDS011;447;51.332;6.778;2022-07-06T00:52:23;5.43;;;2.87;;
920;SDS011;447;51.332;6.778;2022-07-06T00:54:49;4.20;;;2.80;;
920;SDS011;447;51.332;6.778;2022-07-06T00:57:17;6.50;;;2.90;;
920;SDS011;447;51.332;6.778;2022-07-06T00:59:45;5.00;;;2.73;;
920;SDS011;447;51.332;6.778;2022-07-06T01:02:12;4.00;;;2.67;;
920;SDS011;447;51.332;6.778;2022-07-06T01:04:38;5.03;;;2.83;;
920;SDS011;447;51.332;6.778;2022-07-06T01:07:06;6.20;;;2.67;;
920;SDS011;447;51.332;6.778;2022-07-06T01:09:32;4.40;;;2.70;;
920;SDS011;447;51.332;6.778;2022-07-06T01:12:03;4.20;;;2.50;;
920;SDS011;447;51.332;6.778;2022-07-06T01:14:32;5.47;;;2.83;;
920;SDS011;447;51.332;6.778;2022-07-06T01:17:02;4.47;;;3.13;;
920;SDS011;447;51.332;6.778;2022-07-06T01:19:31;3.60;;;2.30;;
920;SDS011;447;51.332;6.778;2022-07-06T01:22:03;3.50;;;2.53;;
920;SDS011;447;51.332;6.778;2022-07-06T01:24:29;5.40;;;2.57;;
920;SDS011;447;51.332;6.778;2022-07-06T01:27:00;5.10;;;2.80;;
920;SDS011;447;51.332;6.778;2022-07-06T01:29:29;3.30;;;2.43;;
920;SDS011;447;51.332;6.778;2022-07-06T01:31:59;4.80;;;2.73;;
920;SDS011;447;51.332;6.778;2022-07-06T01:34:25;4.37;;;2.57;;
920;SDS011;447;51.332;6.778;2022-07-06T01:36:52;3.53;;;2.43;;
920;SDS011;447;51.332;6.778;2022-07-06T01:39:19;3.90;;;2.67;;
920;SDS011;447;51.332;6.778;2022-07-06T01:41:45;2.90;;;2.50;;
920;SDS011;447;51.332;6.778;2022-07-06T01:44:13;2.90;;;2.43;;
920;SDS011;447;51.332;6.778;2022-07-06T01:46:42;4.30;;;2.40;;
920;SDS011;447;51.332;6.778;2022-07-06T01:49:10;4.13;;;2.23;;
920;SDS011;447;51.332;6.778;2022-07-06T01:51:43;2.70;;;2.23;;
920;SDS011;447;51.332;6.778;2022-07-06T01:54:09;4.53;;;2.20;;
920;SDS011;447;51.332;6.778;2022-07-06T01:56:36;3.90;;;2.47;;
920;SDS011;447;51.332;6.778;2022-07-06T01:59:04;6.13;;;2.60;;
920;SDS011;447;51.332;6.778;2022-07-06T02:01:33;2.90;;;2.27;;
920;SDS011;447;51.332;6.778;2022-07-06T02:04:01;4.07;;;2.20;;
920;SDS011;447;51.332;6.778;2022-07-06T02:06:30;4.63;;;2.00;;
920;SDS011;447;51.332;6.778;2022-07-06T02:08:56;3.30;;;2.20;;
920;SDS011;447;51.332;6.778;2022-07-06T02:11:25;4.20;;;2.70;;
920;SDS011;447;51.332;6.778;2022-07-06T02:13:55;3.63;;;2.30;;
920;SDS011;447;51.332;6.778;2022-07-06T02:16:22;2.97;;;2.07;;
920;SDS011;447;51.332;6.778;2022-07-06T02:18:48;2.90;;;2.13;;
920;SDS011;447;51.332;6.778;2022-07-06T02:21:17;3.13;;;2.23;;
920;SDS011;447;51.332;6.778;2022-07-06T02:23:43;2.87;;;2.00;;
920;SDS011;447;51.332;6.778;2022-07-06T02:26:09;6.30;;;2.60;;
920;SDS011;447;51.332;6.778;2022-07-06T02:28:35;2.57;;;1.80;;
920;SDS011;447;51.332;6.778;2022-07-06T02:31:01;4.10;;;2.27;;
920;SDS011;447;51.332;6.778;2022-07-06T02:33:29;2.80;;;2.00;;
920;SDS011;447;51.332;6.778;2022-07-06T02:35:57;2.70;;;2.00;;
920;SDS011;447;51.332;6.778;2022-07-06T02:38:23;2.90;;;1.83;;
920;SDS011;447;51.332;6.778;2022-07-06T02:40:51;3.17;;;1.93;;
920;SDS011;447;51.332;6.778;2022-07-06T02:43:18;2.13;;;1.87;;
920;SDS011;447;51.332;6.778;2022-07-06T02:45:44;3.23;;;2.13;;
920;SDS011;447;51.332;6.778;2022-07-06T02:48:11;5.70;;;2.27;;
920;SDS011;447;51.332;6.778;2022-07-06T02:50:42;3.93;;;2.00;;
920;SDS011;447;51.332;6.778;2022-07-06T02:53:08;2.73;;;2.20;;
920;SDS011;447;51.332;6.778;2022-07-06T02:55:37;3.67;;;1.70;;
920;SDS011;447;51.332;6.778;2022-07-06T02:58:08;3.73;;;1.97;;
920;SDS011;447;51.332;6.778;2022-07-06T03:00:37;3.50;;;1.90;;
920;SDS011;447;51.332;6.778;2022-07-06T03:03:05;4.03;;;2.10;;
920;SDS011;447;51.332;6.778;2022-07-06T03:05:32;2.50;;;2.07;;
920;SDS011;447;51.332;6.778;2022-07-06T03:07:58;2.60;;;1.97;;
920;SDS011;447;51.332;6.778;2022-07-06T03:10:24;2.60;;;2.33;;
920;SDS011;447;51.332;6.778;2022-07-06T03:12:51;2.53;;;2.33;;
920;SDS011;447;51.332;6.778;2022-07-06T03:15:20;1.60;;;1.50;;
920;SDS011;447;51.332;6.778;2022-07-06T03:17:51;2.20;;;1.97;;
920;SDS011;447;51.332;6.778;2022-07-06T03:20:20;2.43;;;1.70;;
920;SDS011;447;51.332;6.778;2022-07-06T03:22:47;2.13;;;1.87;;
920;SDS011;447;51.332;6.778;2022-07-06T03:25:16;3.30;;;2.10;;
920;SDS011;447;51.332;6.778;2022-07-06T03:27:43;3.90;;;1.83;;
920;SDS011;447;51.332;6.778;2022-07-06T03:30:14;2.63;;;2.43;;
920;SDS011;447;51.332;6.778;2022-07-06T03:32:50;2.63;;;1.77;;
920;SDS011;447;51.332;6.778;2022-07-06T03:35:18;2.20;;;2.00;;
920;SDS011;447;51.332;6.778;2022-07-06T03:37:49;2.60;;;1.47;;
920;SDS011;447;51.332;6.778;2022-07-06T03:40:21;2.03;;;1.63;;
920;SDS011;447;51.332;6.778;2022-07-06T03:42:51;1.60;;;1.50;;
920;SDS011;447;51.332;6.778;2022-07-06T03:45:26;2.20;;;1.70;;
920;SDS011;447;51.332;6.778;2022-07-06T03:47:57;3.53;;;1.60;;
920;SDS011;447;51.332;6.778;2022-07-06T03:50:26;3.10;;;1.87;;
920;SDS011;447;51.332;6.778;2022-07-06T03:52:52;3.00;;;2.23;;
920;SDS011;447;51.332;6.778;2022-07-06T03:55:21;1.87;;;1.60;;
920;SDS011;447;51.332;6.778;2022-07-06T03:57:58;1.67;;;1.57;;
920;SDS011;447;51.332;6.778;2022-07-06T04:00:27;2.90;;;1.70;;
920;SDS011;447;51.332;6.778;2022-07-06T04:03:00;2.30;;;2.00;;
920;SDS011;447;51.332;6.778;2022-07-06T04:05:31;2.83;;;1.77;;
920;SDS011;447;51.332;6.778;2022-07-06T04:08:00;2.93;;;1.57;;
920;SDS011;447;51.332;6.778;2022-07-06T04:10:36;3.67;;;1.63;;
920;SDS011;447;51.332;6.778;2022-07-06T04:13:06;1.60;;;1.50;;
920;SDS011;447;51.332;6.778;2022-07-06T04:15:34;2.70;;;1.67;;
920;SDS011;447;51.332;6.778;2022-07-06T04:18:00;2.27;;;1.67;;
920;SDS011;447;51.332;6.778;2022-07-06T04:20:33;1.63;;;1.53;;
920;SDS011;447;51.332;6.778;2022-07-06T04:23:01;1.97;;;1.67;;
920;SDS011;447;51.332;6.778;2022-07-06T04:25:28;4.03;;;1.73;;
920;SDS011;447;51.332;6.778;2022-07-06T04:27:57;2.10;;;1.57;;
920;SDS011;447;51.332;6.778;2022-07-06T04:30:23;2.60;;;1.60;;
920;SDS011;447;51.332;6.778;2022-07-06T04:32:49;2.10;;;1.40;;
920;SDS011;447;51.332;6.778;2022-07-06T04:35:16;1.80;;;1.70;;
920;SDS011;447;51.332;6.778;2022-07-06T04:37:45;3.53;;;1.80;;
920;SDS011;447;51.332;6.778;2022-07-06T04:40:17;2.20;;;1.80;;
920;SDS011;447;51.332;6.778;2022-07-06T04:42:43;2.47;;;1.70;;
920;SDS011;447;51.332;6.778;2022-07-06T04:45:10;4.07;;;1.60;;
920;SDS011;447;51.332;6.778;2022-07-06T04:47:39;2.23;;;1.73;;
920;SDS011;447;51.332;6.778;2022-07-06T04:50:09;1.57;;;1.47;;
920;SDS011;447;51.332;6.778;2022-07-06T04:52:35;2.57;;;1.50;;
920;SDS011;447;51.332;6.778;2022-07-06T04:55:07;2.90;;;2.07;;
920;SDS011;447;51.332;6.778;2022-07-06T04:57:34;2.40;;;1.67;;
920;SDS011;447;51.332;6.778;2022-07-06T05:00:03;1.80;;;1.67;;
920;SDS011;447;51.332;6.778;2022-07-06T05:02:30;1.73;;;1.63;;
920;SDS011;447;51.332;6.778;2022-07-06T05:04:56;1.77;;;1.57;;
920;SDS011;447;51.332;6.778;2022-07-06T05:07:22;1.93;;;1.67;;
920;SDS011;447;51.332;6.778;2022-07-06T05:09:53;2.80;;;1.50;;
920;SDS011;447;51.332;6.778;2022-07-06T05:12:20;1.60;;;1.50;;
920;SDS011;447;51.332;6.778;2022-07-06T05:14:46;2.53;;;1.30;;
920;SDS011;447;51.332;6.778;2022-07-06T05:17:15;3.20;;;1.77;;
920;SDS011;447;51.332;6.778;2022-07-06T05:19:41;2.53;;;1.60;;
920;SDS011;447;51.332;6.778;2022-07-06T05:22:09;1.80;;;1.70;;
920;SDS011;447;51.332;6.778;2022-07-06T05:24:36;2.40;;;1.70;;
920;SDS011;447;51.332;6.778;2022-07-06T05:27:02;2.43;;;1.63;;
920;SDS011;447;51.332;6.778;2022-07-06T05:29:31;2.03;;;1.67;;
920;SDS011;447;51.332;6.778;2022-07-06T05:32:01;2.57;;;1.33;;
920;SDS011;447;51.332;6.778;2022-07-06T05:34:28;1.67;;;1.57;;
920;SDS011;447;51.332;6.778;2022-07-06T05:36:54;3.27;;;1.67;;
920;SDS011;447;51.332;6.778;2022-07-06T05:39:20;2.33;;;1.87;;
920;SDS011;447;51.332;6.778;2022-07-06T05:41:48;2.40;;;1.60;;
920;SDS011;447;51.332;6.778;2022-07-06T05:44:15;1.50;;;1.40;;
920;SDS011;447;51.332;6.778;2022-07-06T05:46:42;1.43;;;1.33;;
920;SDS011;447;51.332;6.778;2022-07-06T05:49:11;1.70;;;1.50;;
920;SDS011;447;51.332;6.778;2022-07-06T05:51:56;2.00;;;1.30;;
920;SDS011;447;51.332;6.778;2022-07-06T05:54:24;1.20;;;1.10;;
920;SDS011;447;51.332;6.778;2022-07-06T05:56:52;1.63;;;1.30;;
920;SDS011;447;51.332;6.778;2022-07-06T05:59:21;2.27;;;1.87;;
920;SDS011;447;51.332;6.778;2022-07-06T06:01:50;2.00;;;1.40;;
920;SDS011;447;51.332;6.778;2022-07-06T06:04:23;2.17;;;1.50;;
920;SDS011;447;51.332;6.778;2022-07-06T06:06:49;2.93;;;1.40;;
920;SDS011;447;51.332;6.778;2022-07-06T06:09:18;2.07;;;1.53;;
920;SDS011;447;51.332;6.778;2022-07-06T06:11:46;2.93;;;1.30;;
920;SDS011;447;51.332;6.778;2022-07-06T06:14:14;2.70;;;1.63;;
920;SDS011;447;51.332;6.778;2022-07-06T06:16:41;2.27;;;1.30;;
920;SDS011;447;51.332;6.778;2022-07-06T06:19:09;2.47;;;1.77;;
920;SDS011;447;51.332;6.778;2022-07-06T06:21:37;3.80;;;1.50;;
920;SDS011;447;51.332;6.778;2022-07-06T06:24:08;1.90;;;1.33;;
920;SDS011;447;51.332;6.778;2022-07-06T06:26:34;1.63;;;1.50;;
920;SDS011;447;51.332;6.778;2022-07-06T06:29:02;1.50;;;1.40;;
920;SDS011;447;51.332;6.778;2022-07-06T06:31:29;1.80;;;1.43;;
920;SDS011;447;51.332;6.778;2022-07-06T06:33:57;1.97;;;1.70;;
920;SDS011;447;51.332;6.778;2022-07-06T06:36:23;1.77;;;1.67;;
920;SDS011;447;51.332;6.778;2022-07-06T06:38:49;1.73;;;1.63;;
920;SDS011;447;51.332;6.778;2022-07-06T06:41:15;5.90;;;2.00;;
920;SDS011;447;51.332;6.778;2022-07-06T06:43:44;2.00;;;1.53;;
920;SDS011;447;51.332;6.778;2022-07-06T06:46:19;3.20;;;1.90;;
920;SDS011;447;51.332;6.778;2022-07-06T06:48:47;2.27;;;1.53;;
920;SDS011;447;51.332;6.778;2022-07-06T06:51:13;4.17;;;2.43;;
920;SDS011;447;51.332;6.778;2022-07-06T06:53:44;2.20;;;1.93;;
920;SDS011;447;51.332;6.778;2022-07-06T06:56:10;5.40;;;2.77;;
920;SDS011;447;51.332;6.778;2022-07-06T06:58:38;3.70;;;2.00;;
920;SDS011;447;51.332;6.778;2022-07-06T07:01:04;3.10;;;2.00;;
920;SDS011;447;51.332;6.778;2022-07-06T07:03:33;4.53;;;2.13;;
920;SDS011;447;51.332;6.778;2022-07-06T07:05:59;3.00;;;2.10;;
920;SDS011;447;51.332;6.778;2022-07-06T07:08:28;3.30;;;2.30;;
920;SDS011;447;51.332;6.778;2022-07-06T07:10:56;3.50;;;2.23;;
920;SDS011;447;51.332;6.778;2022-07-06T07:13:23;6.40;;;2.40;;
920;SDS011;447;51.332;6.778;2022-07-06T07:15:48;4.37;;;2.40;;
920;SDS011;447;51.332;6.778;2022-07-06T07:18:15;3.27;;;2.60;;
920;SDS011;447;51.332;6.778;2022-07-06T07:20:41;2.27;;;2.07;;
920;SDS011;447;51.332;6.778;2022-07-06T07:23:10;4.33;;;2.37;;
920;SDS011;447;51.332;6.778;2022-07-06T07:25:38;5.00;;;2.63;;
920;SDS011;447;51.332;6.778;2022-07-06T07:28:07;3.50;;;2.03;;
920;SDS011;447;51.332;6.778;2022-07-06T07:30:37;5.73;;;2.57;;
920;SDS011;447;51.332;6.778;2022-07-06T07:33:06;2.77;;;2.47;;
920;SDS011;447;51.332;6.778;2022-07-06T07:35:37;4.10;;;2.20;;
920;SDS011;447;51.332;6.778;2022-07-06T07:38:05;3.60;;;2.10;;
920;SDS011;447;51.332;6.778;2022-07-06T07:40:32;3.43;;;2.23;;
920;SDS011;447;51.332;6.778;2022-07-06T07:43:01;5.00;;;2.17;;
920;SDS011;447;51.332;6.778;2022-07-06T07:45:27;3.83;;;1.90;;
920;SDS011;447;51.332;6.778;2022-07-06T07:47:55;3.80;;;2.03;;
920;SDS011;447;51.332;6.778;2022-07-06T07:50:21;2.83;;;1.80;;
920;SDS011;447;51.332;6.778;2022-07-06T07:52:52;2.77;;;1.90;;
920;SDS011;447;51.332;6.778;2022-07-06T07:55:19;3.10;;;2.10;;
920;SDS011;447;51.332;6.778;2022-07-06T07:57:47;3.67;;;2.17;;
920;SDS011;447;51.332;6.778;2022-07-06T08:00:13;3.23;;;1.87;;
920;SDS011;447;51.332;6.778;2022-07-06T08:02:41;5.20;;;1.90;;
920;SDS011;447;51.332;6.778;2022-07-06T08:05:10;3.20;;;1.80;;
920;SDS011;447;51.332;6.778;2022-07-06T08:07:42;4.00;;;1.90;;
920;SDS011;447;51.332;6.778;2022-07-06T08:10:09;2.17;;;1.67;;
920;SDS011;447;51.332;6.778;2022-07-06T08:12:36;3.13;;;1.87;;
920;SDS011;447;51.332;6.778;2022-07-06T08:15:09;3.13;;;1.77;;
920;SDS011;447;51.332;6.778;2022-07-06T08:17:35;3.17;;;1.53;;
920;SDS011;447;51.332;6.778;2022-07-06T08:20:02;4.93;;;1.57;;
920;SDS011;447;51.332;6.778;2022-07-06T08:22:30;1.97;;;1.57;;
920;SDS011;447;51.332;6.778;2022-07-06T08:24:57;2.80;;;1.63;;
920;SDS011;447;51.332;6.778;2022-07-06T08:27:28;4.60;;;1.80;;
920;SDS011;447;51.332;6.778;2022-07-06T08:29:54;2.00;;;1.70;;
920;SDS011;447;51.332;6.778;2022-07-06T08:32:20;2.40;;;1.40;;
920;SDS011;447;51.332;6.778;2022-07-06T08:34:46;5.27;;;1.60;;
920;SDS011;447;51.332;6.778;2022-07-06T08:37:13;2.40;;;1.37;;
920;SDS011;447;51.332;6.778;2022-07-06T08:39:39;3.37;;;1.67;;
920;SDS011;447;51.332;6.778;2022-07-06T08:42:07;3.10;;;1.43;;
920;SDS011;447;51.332;6.778;2022-07-06T08:44:37;2.50;;;1.40;;
920;SDS011;447;51.332;6.778;2022-07-06T08:47:04;1.97;;;1.50;;
920;SDS011;447;51.332;6.778;2022-07-06T08:49:34;2.80;;;1.50;;
920;SDS011;447;51.332;6.778;2022-07-06T08:52:04;1.57;;;1.20;;
920;SDS011;447;51.332;6.778;2022-07-06T08:54:31;1.97;;;1.13;;
920;SDS011;447;51.332;6.778;2022-07-06T08:57:02;1.50;;;1.20;;
920;SDS011;447;51.332;6.778;2022-07-06T08:59:31;3.60;;;1.70;;
920;SDS011;447;51.332;6.778;2022-07-06T09:01:58;2.50;;;1.40;;
920;SDS011;447;51.332;6.778;2022-07-06T09:04:25;2.50;;;1.47;;
920;SDS011;447;51.332;6.778;2022-07-06T09:06:54;1.80;;;1.30;;
920;SDS011;447;51.332;6.778;2022-07-06T09:09:23;1.97;;;1.30;;
920;SDS011;447;51.332;6.778;2022-07-06T09:11:50;2.20;;;1.43;;
920;SDS011;447;51.332;6.778;2022-07-06T09:14:17;2.77;;;1.43;;
920;SDS011;447;51.332;6.778;2022-07-06T09:16:44;1.37;;;1.27;;
920;SDS011;447;51.332;6.778;2022-07-06T09:19:12;3.50;;;1.93;;
920;SDS011;447;51.332;6.778;2022-07-06T09:21:42;4.63;;;1.97;;
920;SDS011;447;51.332;6.778;2022-07-06T09:24:11;4.43;;;1.60;;
920;SDS011;447;51.332;6.778;2022-07-06T09:26:40;1.67;;;1.40;;
920;SDS011;447;51.332;6.778;2022-07-06T09:29:12;2.40;;;1.33;;
920;SDS011;447;51.332;6.778;2022-07-06T09:31:41;1.40;;;1.30;;
920;SDS011;447;51.332;6.778;2022-07-06T09:34:07;2.17;;;1.30;;
920;SDS011;447;51.332;6.778;2022-07-06T09:36:47;2.80;;;1.30;;
920;SDS011;447;51.332;6.778;2022-07-06T09:39:24;3.93;;;1.67;;
920;SDS011;447;51.332;6.778;2022-07-06T09:41:56;2.43;;;1.30;;
920;SDS011;447;51.332;6.778;2022-07-06T09:44:26;7.13;;;1.83;;
920;SDS011;447;51.332;6.778;2022-07-06T09:47:02;1.73;;;1.50;;
920;SDS011;447;51.332;6.778;2022-07-06T09:49:32;3.20;;;1.30;;
920;SDS011;447;51.332;6.778;2022-07-06T09:52:03;1.43;;;1.20;;
920;SDS011;447;51.332;6.778;2022-07-06T09:54:37;1.53;;;1.13;;
920;SDS011;447;51.332;6.778;2022-07-06T09:57:04;1.83;;;1.20;;
920;SDS011;447;51.332;6.778;2022-07-06T09:59:34;1.70;;;1.20;;
920;SDS011;447;51.332;6.778;2022-07-06T10:02:02;1.60;;;1.40;;
920;SDS011;447;51.332;6.778;2022-07-06T10:04:32;1.60;;;1.20;;
920;SDS011;447;51.332;6.778;2022-07-06T10:06:59;2.10;;;1.50;;
920;SDS011;447;51.332;6.778;2022-07-06T10:09:26;2.17;;;1.40;;
920;SDS011;447;51.332;6.778;2022-07-06T10:11:59;2.23;;;1.20;;
920;SDS011;447;51.332;6.778;2022-07-06T10:14:30;1.70;;;1.30;;
920;SDS011;447;51.332;6.778;2022-07-06T10:17:02;2.90;;;1.40;;
920;SDS011;447;51.332;6.778;2022-07-06T10:19:33;1.87;;;1.13;;
920;SDS011;447;51.332;6.778;2022-07-06T10:22:00;1.63;;;1.50;;
920;SDS011;447;51.332;6.778;2022-07-06T10:24:32;1.87;;;1.10;;
920;SDS011;447;51.332;6.778;2022-07-06T10:27:04;1.50;;;1.40;;
920;SDS011;447;51.332;6.778;2022-07-06T10:29:35;1.27;;;1.17;;
920;SDS011;447;51.332;6.778;2022-07-06T10:32:03;2.83;;;1.37;;
920;SDS011;447;51.332;6.778;2022-07-06T10:34:34;1.90;;;1.13;;
920;SDS011;447;51.332;6.778;2022-07-06T10:37:01;3.80;;;1.40;;
920;SDS011;447;51.332;6.778;2022-07-06T10:39:35;4.00;;;1.13;;
920;SDS011;447;51.332;6.778;2022-07-06T10:45:10;2.37;;;1.07;;
920;SDS011;447;51.332;6.778;2022-07-06T10:47:37;1.77;;;1.10;;
920;SDS011;447;51.332;6.778;2022-07-06T10:50:08;1.70;;;1.00;;
920;SDS011;447;51.332;6.778;2022-07-06T10:58:01;4.63;;;1.37;;
920;SDS011;447;51.332;6.778;2022-07-06T11:08:43;1.37;;;1.10;;
920;SDS011;447;51.332;6.778;2022-07-06T11:14:20;1.23;;;1.07;;
920;SDS011;447;51.332;6.778;2022-07-06T11:19:22;2.67;;;1.23;;
920;SDS011;447;51.332;6.778;2022-07-06T12:37:23;4.33;;;1.40;;
920;SDS011;447;51.332;6.778;2022-07-06T12:39:49;2.30;;;1.17;;
920;SDS011;447;51.332;6.778;2022-07-06T12:42:17;1.50;;;1.10;;
920;SDS011;447;51.332;6.778;2022-07-06T12:44:49;2.50;;;1.40;;
920;SDS011;447;51.332;6.778;2022-07-06T12:47:21;4.83;;;1.10;;
920;SDS011;447;51.332;6.778;2022-07-06T12:50:07;2.80;;;1.30;;
920;SDS011;447;51.332;6.778;2022-07-06T12:52:35;1.77;;;1.27;;
920;SDS011;447;51.332;6.778;2022-07-06T12:55:04;2.80;;;1.23;;
920;SDS011;447;51.332;6.778;2022-07-06T13:00:14;1.63;;;1.20;;
920;SDS011;447;51.332;6.778;2022-07-06T13:02:45;1.20;;;1.10;;
920;SDS011;447;51.332;6.778;2022-07-06T13:05:21;1.43;;;1.20;;
920;SDS011;447;51.332;6.778;2022-07-06T13:07:57;1.23;;;1.07;;
920;SDS011;447;51.332;6.778;2022-07-06T13:10:24;2.20;;;1.20;;
920;SDS011;447;51.332;6.778;2022-07-06T13:12:51;1.73;;;1.07;;
920;SDS011;447;51.332;6.778;2022-07-06T13:15:20;1.87;;;1.03;;
920;SDS011;447;51.332;6.778;2022-07-06T13:17:51;2.03;;;0.97;;
920;SDS011;447;51.332;6.778;2022-07-06T13:20:16;1.63;;;1.20;;
920;SDS011;447;51.332;6.778;2022-07-06T13:22:43;1.70;;;1.10;;
920;SDS011;447;51.332;6.778;2022-07-06T13:25:11;1.80;;;1.20;;
920;SDS011;447;51.332;6.778;2022-07-06T13:27:38;1.17;;;1.07;;
920;SDS011;447;51.332;6.778;2022-07-06T13:30:04;1.33;;;1.20;;
920;SDS011;447;51.332;6.778;2022-07-06T13:32:30;2.73;;;1.20;;
920;SDS011;447;51.332;6.778;2022-07-06T13:34:57;1.67;;;1.23;;
920;SDS011;447;51.332;6.778;2022-07-06T13:37:23;1.90;;;1.27;;
920;SDS011;447;51.332;6.778;2022-07-06T13:39:52;2.10;;;1.20;;
920;SDS011;447;51.332;6.778;2022-07-06T13:42:18;2.70;;;1.17;;
920;SDS011;447;51.332;6.778;2022-07-06T13:44:43;2.10;;;0.90;;
920;SDS011;447;51.332;6.778;2022-07-06T13:47:09;2.43;;;1.27;;
920;SDS011;447;51.332;6.778;2022-07-06T13:49:35;2.57;;;1.10;;
920;SDS011;447;51.332;6.778;2022-07-06T13:52:04;1.50;;;1.10;;
920;SDS011;447;51.332;6.778;2022-07-06T13:54:33;1.63;;;1.20;;
920;SDS011;447;51.332;6.778;2022-07-06T13:57:03;1.53;;;1.00;;
920;SDS011;447;51.332;6.778;2022-07-06T13:59:30;1.60;;;1.10;;
920;SDS011;447;51.332;6.778;2022-07-06T14:02:00;2.13;;;1.67;;
920;SDS011;447;51.332;6.778;2022-07-06T14:04:28;3.63;;;1.37;;
920;SDS011;447;51.332;6.778;2022-07-06T14:06:54;1.40;;;1.20;;
920;SDS011;447;51.332;6.778;2022-07-06T14:09:20;1.33;;;1.23;;
920;SDS011;447;51.332;6.778;2022-07-06T14:11:49;1.80;;;1.00;;
920;SDS011;447;51.332;6.778;2022-07-06T14:14:15;1.53;;;1.30;;
920;SDS011;447;51.332;6.778;2022-07-06T14:16:41;2.13;;;1.23;;
920;SDS011;447;51.332;6.778;2022-07-06T14:19:07;1.83;;;1.30;;
920;SDS011;447;51.332;6.778;2022-07-06T14:21:33;3.10;;;1.17;;
920;SDS011;447;51.332;6.778;2022-07-06T14:23:59;1.30;;;1.20;;
920;SDS011;447;51.332;6.778;2022-07-06T14:26:26;2.00;;;1.17;;
920;SDS011;447;51.332;6.778;2022-07-06T14:28:52;1.43;;;1.17;;
920;SDS011;447;51.332;6.778;2022-07-06T14:31:18;1.43;;;1.10;;
920;SDS011;447;51.332;6.778;2022-07-06T14:33:43;1.57;;;1.10;;
920;SDS011;447;51.332;6.778;2022-07-06T14:36:12;1.77;;;1.37;;
920;SDS011;447;51.332;6.778;2022-07-06T14:38:38;2.17;;;1.00;;
920;SDS011;447;51.332;6.778;2022-07-06T14:41:04;1.10;;;1.00;;
920;SDS011;447;51.332;6.778;2022-07-06T14:43:33;1.60;;;1.20;;
920;SDS011;447;51.332;6.778;2022-07-06T14:46:01;1.53;;;1.00;;
920;SDS011;447;51.332;6.778;2022-07-06T14:48:30;1.10;;;0.90;;
920;SDS011;447;51.332;6.778;2022-07-06T14:50:58;2.93;;;1.13;;
920;SDS011;447;51.332;6.778;2022-07-06T14:53:24;1.60;;;1.00;;
920;SDS011;447;51.332;6.778;2022-07-06T14:55:51;1.00;;;0.90;;
920;SDS011;447;51.332;6.778;2022-07-06T14:58:17;2.33;;;1.10;;
920;SDS011;447;51.332;6.778;2022-07-06T15:00:47;5.23;;;1.20;;
920;SDS011;447;51.332;6.778;2022-07-06T15:03:15;1.40;;;1.20;;
920;SDS011;447;51.332;6.778;2022-07-06T15:05:44;1.27;;;1.17;;
920;SDS011;447;51.332;6.778;2022-07-06T15:08:13;1.47;;;1.07;;
920;SDS011;447;51.332;6.778;2022-07-06T15:10:42;2.13;;;1.20;;
920;SDS011;447;51.332;6.778;2022-07-06T15:13:11;1.43;;;1.10;;
920;SDS011;447;51.332;6.778;2022-07-06T15:15:40;3.93;;;1.33;;
920;SDS011;447;51.332;6.778;2022-07-06T15:18:09;1.13;;;1.00;;
920;SDS011;447;51.332;6.778;2022-07-06T15:20:35;1.63;;;1.20;;
920;SDS011;447;51.332;6.778;2022-07-06T15:23:01;1.20;;;1.07;;
920;SDS011;447;51.332;6.778;2022-07-06T15:25:27;1.10;;;1.00;;
920;SDS011;447;51.332;6.778;2022-07-06T15:27:55;1.10;;;0.97;;
920;SDS011;447;51.332;6.778;2022-07-06T15:30:21;3.27;;;1.30;;
920;SDS011;447;51.332;6.778;2022-07-06T15:32:50;2.73;;;1.20;;
920;SDS011;447;51.332;6.778;2022-07-06T15:35:21;1.97;;;1.13;;
920;SDS011;447;51.332;6.778;2022-07-06T15:37:47;1.30;;;1.20;;
920;SDS011;447;51.332;6.778;2022-07-06T15:40:16;2.53;;;1.03;;
920;SDS011;447;51.332;6.778;2022-07-06T15:42:49;1.23;;;0.90;;
920;SDS011;447;51.332;6.778;2022-07-06T15:45:21;1.97;;;1.10;;
920;SDS011;447;51.332;6.778;2022-07-06T15:47:53;1.27;;;1.10;;
920;SDS011;447;51.332;6.778;2022-07-06T15:50:19;1.87;;;1.10;;
920;SDS011;447;51.332;6.778;2022-07-06T15:52:46;1.73;;;0.97;;
920;SDS011;447;51.332;6.778;2022-07-06T15:55:15;1.87;;;1.20;;
920;SDS011;447;51.332;6.778;2022-07-06T15:57:47;1.40;;;1.20;;
920;SDS011;447;51.332;6.778;2022-07-06T16:00:15;1.50;;;1.10;;
920;SDS011;447;51.332;6.778;2022-07-06T16:02:41;1.67;;;0.93;;
920;SDS011;447;51.332;6.778;2022-07-06T16:05:07;1.67;;;1.00;;
920;SDS011;447;51.332;6.778;2022-07-06T16:07:36;1.40;;;1.00;;
920;SDS011;447;51.332;6.778;2022-07-06T16:10:04;1.90;;;1.23;;
920;SDS011;447;51.332;6.778;2022-07-06T16:12:33;1.77;;;1.30;;
920;SDS011;447;51.332;6.778;2022-07-06T16:15:01;1.30;;;1.20;;
920;SDS011;447;51.332;6.778;2022-07-06T16:17:28;1.30;;;1.17;;
920;SDS011;447;51.332;6.778;2022-07-06T16:19:54;1.33;;;1.23;;
920;SDS011;447;51.332;6.778;2022-07-06T16:22:23;1.23;;;1.00;;
920;SDS011;447;51.332;6.778;2022-07-06T16:24:50;1.90;;;1.00;;
920;SDS011;447;51.332;6.778;2022-07-06T16:27:17;5.90;;;1.00;;
920;SDS011;447;51.332;6.778;2022-07-06T16:29:46;1.90;;;1.00;;
920;SDS011;447;51.332;6.778;2022-07-06T16:32:16;3.63;;;1.10;;
920;SDS011;447;51.332;6.778;2022-07-06T16:34:47;2.20;;;1.20;;
920;SDS011;447;51.332;6.778;2022-07-06T16:37:16;2.40;;;1.10;;
920;SDS011;447;51.332;6.778;2022-07-06T16:39:42;1.33;;;1.20;;
920;SDS011;447;51.332;6.778;2022-07-06T16:42:08;2.30;;;1.40;;
920;SDS011;447;51.332;6.778;2022-07-06T16:44:34;2.13;;;1.07;;
920;SDS011;447;51.332;6.778;2022-07-06T16:47:00;2.20;;;1.03;;
920;SDS011;447;51.332;6.778;2022-07-06T16:49:26;1.97;;;1.10;;
920;SDS011;447;51.332;6.778;2022-07-06T16:51:56;1.50;;;0.97;;
920;SDS011;447;51.332;6.778;2022-07-06T16:54:22;1.33;;;1.23;;
920;SDS011;447;51.332;6.778;2022-07-06T16:56:48;1.30;;;1.20;;
920;SDS011;447;51.332;6.778;2022-07-06T16:59:19;2.83;;;1.07;;
920;SDS011;447;51.332;6.778;2022-07-06T17:01:47;2.30;;;1.17;;
920;SDS011;447;51.332;6.778;2022-07-06T17:04:13;1.10;;;0.90;;
920;SDS011;447;51.332;6.778;2022-07-06T17:06:42;1.63;;;1.10;;
920;SDS011;447;51.332;6.778;2022-07-06T17:09:11;1.63;;;1.10;;
920;SDS011;447;51.332;6.778;2022-07-06T17:11:37;1.33;;;1.23;;
920;SDS011;447;51.332;6.778;2022-07-06T17:14:03;2.50;;;1.20;;
920;SDS011;447;51.332;6.778;2022-07-06T17:16:30;1.83;;;1.10;;
920;SDS011;447;51.332;6.778;2022-07-06T17:18:58;2.57;;;1.17;;
920;SDS011;447;51.332;6.778;2022-07-06T17:21:27;1.30;;;1.20;;
920;SDS011;447;51.332;6.778;2022-07-06T17:23:53;1.17;;;0.90;;
920;SDS011;447;51.332;6.778;2022-07-06T17:26:22;1.80;;;1.00;;
920;SDS011;447;51.332;6.778;2022-07-06T17:28:55;1.30;;;1.10;;
920;SDS011;447;51.332;6.778;2022-07-06T17:31:24;1.20;;;1.10;;